sensor_id;sensor_type;location;lat;lon;timestamp;temperature;humidity
44223;DHT22;29895;48.804;9.386;2023-04-24T00:00:31;11.60;99.90
44223;DHT22;29895;48.804;9.386;2023-04-24T00:02:57;11.60;99.90
44223;DHT22;29895;48.804;9.386;2023-04-24T00:05:23;11.60;99.90
44223;DHT22;29895;48.804;9.386;2023-04-24T00:07:49;11.60;99.90
44223;DHT22;29895;48.804;9.386;2023-04-24T00:10:17;11.70;99.90
44223;DHT22;29895;48.804;9.386;2023-04-24T00:12:43;11.60;99.90
44223;DHT22;29895;48.804;9.386;2023-04-24T00:15:09;11.70;99.90
44223;DHT22;29895;48.804;9.386;2023-04-24T00:17:35;11.70;99.90
44223;DHT22;29895;48.804;9.386;2023-04-24T00:20:00;11.60;99.90
44223;DHT22;29895;48.804;9.386;2023-04-24T00:22:29;11.70;99.90
44223;DHT22;29895;48.804;9.386;2023-04-24T00:24:54;11.80;99.90
44223;DHT22;29895;48.804;9.386;2023-04-24T00:27:20;11.80;99.90
44223;DHT22;29895;48.804;9.386;2023-04-24T00:29:46;11.90;99.90
44223;DHT22;29895;48.804;9.386;2023-04-24T00:32:11;11.90;99.90
44223;DHT22;29895;48.804;9.386;2023-04-24T00:34:37;11.80;99.90
44223;DHT22;29895;48.804;9.386;2023-04-24T00:37:02;11.80;99.90
44223;DHT22;29895;48.804;9.386;2023-04-24T00:39:28;11.90;99.90
44223;DHT22;29895;48.804;9.386;2023-04-24T00:41:53;11.90;99.90
44223;DHT22;29895;48.804;9.386;2023-04-24T00:44:20;11.90;99.90
44223;DHT22;29895;48.804;9.386;2023-04-24T00:46:46;12.00;99.90
44223;DHT22;29895;48.804;9.386;2023-04-24T00:49:12;12.00;99.90
44223;DHT22;29895;48.804;9.386;2023-04-24T00:51:38;12.00;99.90
44223;DHT22;29895;48.804;9.386;2023-04-24T00:54:05;12.00;99.90
44223;DHT22;29895;48.804;9.386;2023-04-24T00:56:31;12.00;99.90
44223;DHT22;29895;48.804;9.386;2023-04-24T00:58:56;12.00;99.90
44223;DHT22;29895;48.804;9.386;2023-04-24T01:01:23;12.00;99.90
44223;DHT22;29895;48.804;9.386;2023-04-24T01:03:51;12.00;99.90
44223;DHT22;29895;48.804;9.386;2023-04-24T01:06:18;12.00;99.90
44223;DHT22;29895;48.804;9.386;2023-04-24T01:08:44;12.00;99.90
44223;DHT22;29895;48.804;9.386;2023-04-24T01:11:10;12.10;99.90
44223;DHT22;29895;48.804;9.386;2023-04-24T01:13:36;12.20;99.90
44223;DHT22;29895;48.804;9.386;2023-04-24T01:16:02;12.10;99.90
44223;DHT22;29895;48.804;9.386;2023-04-24T01:18:27;12.20;99.90
44223;DHT22;29895;48.804;9.386;2023-04-24T01:20:53;12.20;99.90
44223;DHT22;29895;48.804;9.386;2023-04-24T01:23:21;12.20;99.90
44223;DHT22;29895;48.804;9.386;2023-04-24T01:25:47;12.20;99.90
44223;DHT22;29895;48.804;9.386;2023-04-24T01:28:13;12.20;99.90
44223;DHT22;29895;48.804;9.386;2023-04-24T01:30:39;12.20;99.90
44223;DHT22;29895;48.804;9.386;2023-04-24T01:33:05;12.20;99.90
44223;DHT22;29895;48.804;9.386;2023-04-24T01:35:30;12.20;99.90
44223;DHT22;29895;48.804;9.386;2023-04-24T01:37:56;12.10;99.90
44223;DHT22;29895;48.804;9.386;2023-04-24T01:40:21;12.10;99.90
44223;DHT22;29895;48.804;9.386;2023-04-24T01:42:47;12.10;99.90
44223;DHT22;29895;48.804;9.386;2023-04-24T01:45:12;12.10;99.90
44223;DHT22;29895;48.804;9.386;2023-04-24T01:47:38;12.20;99.90
44223;DHT22;29895;48.804;9.386;2023-04-24T01:50:04;12.20;99.90
44223;DHT22;29895;48.804;9.386;2023-04-24T01:52:30;12.10;99.90
44223;DHT22;29895;48.804;9.386;2023-04-24T01:55:02;12.10;99.90
44223;DHT22;29895;48.804;9.386;2023-04-24T01:57:28;12.00;99.90
44223;DHT22;29895;48.804;9.386;2023-04-24T01:59:55;12.00;99.90
44223;DHT22;29895;48.804;9.386;2023-04-24T02:02:21;11.90;99.90
44223;DHT22;29895;48.804;9.386;2023-04-24T02:04:52;11.90;99.90
44223;DHT22;29895;48.804;9.386;2023-04-24T02:07:17;11.90;99.90
44223;DHT22;29895;48.804;9.386;2023-04-24T02:09:43;11.90;99.90
44223;DHT22;29895;48.804;9.386;2023-04-24T02:12:08;11.90;99.90
44223;DHT22;29895;48.804;9.386;2023-04-24T02:14:34;11.90;99.90
44223;DHT22;29895;48.804;9.386;2023-04-24T02:16:59;11.90;99.90
44223;DHT22;29895;48.804;9.386;2023-04-24T02:19:26;11.80;99.90
44223;DHT22;29895;48.804;9.386;2023-04-24T02:21:51;11.80;99.90
44223;DHT22;29895;48.804;9.386;2023-04-24T02:24:17;11.80;99.90
44223;DHT22;29895;48.804;9.386;2023-04-24T02:26:43;11.70;99.90
44223;DHT22;29895;48.804;9.386;2023-04-24T02:29:08;11.70;99.90
44223;DHT22;29895;48.804;9.386;2023-04-24T02:31:34;11.70;99.90
44223;DHT22;29895;48.804;9.386;2023-04-24T02:33:59;11.70;99.90
44223;DHT22;29895;48.804;9.386;2023-04-24T02:36:25;11.80;99.90
44223;DHT22;29895;48.804;9.386;2023-04-24T02:38:50;11.80;99.90
44223;DHT22;29895;48.804;9.386;2023-04-24T02:41:16;11.80;99.90
44223;DHT22;29895;48.804;9.386;2023-04-24T02:43:41;11.90;99.90
44223;DHT22;29895;48.804;9.386;2023-04-24T02:46:07;11.80;99.90
44223;DHT22;29895;48.804;9.386;2023-04-24T02:48:32;11.70;99.90
44223;DHT22;29895;48.804;9.386;2023-04-24T02:50:58;11.70;99.90
44223;DHT22;29895;48.804;9.386;2023-04-24T02:53:23;11.70;99.90
44223;DHT22;29895;48.804;9.386;2023-04-24T02:55:49;11.80;99.90
44223;DHT22;29895;48.804;9.386;2023-04-24T02:58:14;11.80;99.90
44223;DHT22;29895;48.804;9.386;2023-04-24T03:00:40;11.90;99.90
44223;DHT22;29895;48.804;9.386;2023-04-24T03:03:06;12.00;99.90
44223;DHT22;29895;48.804;9.386;2023-04-24T03:05:32;12.00;99.90
44223;DHT22;29895;48.804;9.386;2023-04-24T03:07:57;11.90;99.90
44223;DHT22;29895;48.804;9.386;2023-04-24T03:10:23;11.70;99.90
44223;DHT22;29895;48.804;9.386;2023-04-24T03:12:49;11.60;99.90
44223;DHT22;29895;48.804;9.386;2023-04-24T03:15:14;11.50;99.90
44223;DHT22;29895;48.804;9.386;2023-04-24T03:17:40;11.40;99.90
44223;DHT22;29895;48.804;9.386;2023-04-24T03:20:06;11.30;99.90
44223;DHT22;29895;48.804;9.386;2023-04-24T03:22:32;11.30;99.90
44223;DHT22;29895;48.804;9.386;2023-04-24T03:24:58;11.30;99.90
44223;DHT22;29895;48.804;9.386;2023-04-24T03:27:24;11.20;99.90
44223;DHT22;29895;48.804;9.386;2023-04-24T03:29:50;11.20;99.90
44223;DHT22;29895;48.804;9.386;2023-04-24T03:32:21;11.20;99.90
44223;DHT22;29895;48.804;9.386;2023-04-24T03:34:47;11.20;99.90
44223;DHT22;29895;48.804;9.386;2023-04-24T03:37:12;11.20;99.90
44223;DHT22;29895;48.804;9.386;2023-04-24T03:39:38;11.10;99.90
44223;DHT22;29895;48.804;9.386;2023-04-24T03:42:03;11.10;99.90
44223;DHT22;29895;48.804;9.386;2023-04-24T03:44:29;11.20;99.90
44223;DHT22;29895;48.804;9.386;2023-04-24T03:46:55;11.20;99.90
44223;DHT22;29895;48.804;9.386;2023-04-24T03:49:20;11.20;99.90
44223;DHT22;29895;48.804;9.386;2023-04-24T03:51:46;11.20;99.90
44223;DHT22;29895;48.804;9.386;2023-04-24T03:54:11;11.30;99.90
44223;DHT22;29895;48.804;9.386;2023-04-24T03:56:37;11.30;99.90
44223;DHT22;29895;48.804;9.386;2023-04-24T03:59:02;11.30;99.90
44223;DHT22;29895;48.804;9.386;2023-04-24T04:01:28;11.30;99.90
44223;DHT22;29895;48.804;9.386;2023-04-24T04:03:54;11.30;99.90
44223;DHT22;29895;48.804;9.386;2023-04-24T04:06:19;11.20;99.90
44223;DHT22;29895;48.804;9.386;2023-04-24T04:08:46;11.20;99.90
44223;DHT22;29895;48.804;9.386;2023-04-24T04:11:12;11.10;99.90
44223;DHT22;29895;48.804;9.386;2023-04-24T04:13:37;11.00;99.90
44223;DHT22;29895;48.804;9.386;2023-04-24T04:16:03;11.00;99.90
44223;DHT22;29895;48.804;9.386;2023-04-24T04:18:28;11.00;99.90
44223;DHT22;29895;48.804;9.386;2023-04-24T04:20:54;11.00;99.90
44223;DHT22;29895;48.804;9.386;2023-04-24T04:23:20;11.00;99.90
44223;DHT22;29895;48.804;9.386;2023-04-24T04:25:45;11.00;99.90
44223;DHT22;29895;48.804;9.386;2023-04-24T04:28:12;11.10;99.90
44223;DHT22;29895;48.804;9.386;2023-04-24T04:30:37;11.10;99.90
44223;DHT22;29895;48.804;9.386;2023-04-24T04:33:03;11.10;99.90
44223;DHT22;29895;48.804;9.386;2023-04-24T04:35:29;11.20;99.90
44223;DHT22;29895;48.804;9.386;2023-04-24T04:37:54;11.30;99.90
44223;DHT22;29895;48.804;9.386;2023-04-24T04:40:21;11.30;99.90
44223;DHT22;29895;48.804;9.386;2023-04-24T04:42:46;11.30;99.90
44223;DHT22;29895;48.804;9.386;2023-04-24T04:45:12;11.30;99.90
44223;DHT22;29895;48.804;9.386;2023-04-24T04:47:38;11.10;99.90
44223;DHT22;29895;48.804;9.386;2023-04-24T04:50:04;11.10;99.90
44223;DHT22;29895;48.804;9.386;2023-04-24T04:52:30;10.90;99.90
44223;DHT22;29895;48.804;9.386;2023-04-24T04:54:56;10.80;99.90
44223;DHT22;29895;48.804;9.386;2023-04-24T04:57:22;10.60;99.90
44223;DHT22;29895;48.804;9.386;2023-04-24T04:59:47;10.50;99.90
44223;DHT22;29895;48.804;9.386;2023-04-24T05:02:13;10.50;99.90
44223;DHT22;29895;48.804;9.386;2023-04-24T05:04:38;10.50;99.90
44223;DHT22;29895;48.804;9.386;2023-04-24T05:07:04;10.50;99.90
44223;DHT22;29895;48.804;9.386;2023-04-24T05:09:29;10.40;99.90
44223;DHT22;29895;48.804;9.386;2023-04-24T05:11:55;10.30;99.90
44223;DHT22;29895;48.804;9.386;2023-04-24T05:14:21;10.30;99.90
44223;DHT22;29895;48.804;9.386;2023-04-24T05:16:47;10.30;99.90
44223;DHT22;29895;48.804;9.386;2023-04-24T05:19:12;10.30;99.90
44223;DHT22;29895;48.804;9.386;2023-04-24T05:21:39;10.30;99.90
44223;DHT22;29895;48.804;9.386;2023-04-24T05:24:05;10.30;99.90
44223;DHT22;29895;48.804;9.386;2023-04-24T05:26:31;10.30;99.90
44223;DHT22;29895;48.804;9.386;2023-04-24T05:28:56;10.40;99.90
44223;DHT22;29895;48.804;9.386;2023-04-24T05:31:22;10.40;99.90
44223;DHT22;29895;48.804;9.386;2023-04-24T05:33:47;10.40;99.90
44223;DHT22;29895;48.804;9.386;2023-04-24T05:36:13;10.40;99.90
44223;DHT22;29895;48.804;9.386;2023-04-24T05:38:39;10.40;99.90
44223;DHT22;29895;48.804;9.386;2023-04-24T05:41:04;10.40;99.90
44223;DHT22;29895;48.804;9.386;2023-04-24T05:43:30;10.40;99.90
44223;DHT22;29895;48.804;9.386;2023-04-24T05:45:55;10.40;99.90
44223;DHT22;29895;48.804;9.386;2023-04-24T05:48:21;10.60;99.90
44223;DHT22;29895;48.804;9.386;2023-04-24T05:50:48;10.60;99.90
44223;DHT22;29895;48.804;9.386;2023-04-24T05:53:13;10.60;99.90
44223;DHT22;29895;48.804;9.386;2023-04-24T05:55:39;10.60;99.90
44223;DHT22;29895;48.804;9.386;2023-04-24T05:58:04;10.60;99.90
44223;DHT22;29895;48.804;9.386;2023-04-24T06:00:30;10.60;99.90
44223;DHT22;29895;48.804;9.386;2023-04-24T06:02:56;10.70;99.90
44223;DHT22;29895;48.804;9.386;2023-04-24T06:05:21;10.70;99.90
44223;DHT22;29895;48.804;9.386;2023-04-24T06:07:47;10.90;99.90
44223;DHT22;29895;48.804;9.386;2023-04-24T06:10:13;11.00;99.90
44223;DHT22;29895;48.804;9.386;2023-04-24T06:12:39;11.00;99.90
44223;DHT22;29895;48.804;9.386;2023-04-24T06:15:05;11.00;99.90
44223;DHT22;29895;48.804;9.386;2023-04-24T06:17:31;11.10;99.90
44223;DHT22;29895;48.804;9.386;2023-04-24T06:19:57;11.10;99.90
44223;DHT22;29895;48.804;9.386;2023-04-24T06:22:22;11.10;99.90
44223;DHT22;29895;48.804;9.386;2023-04-24T06:24:47;11.10;99.90
44223;DHT22;29895;48.804;9.386;2023-04-24T06:27:14;11.10;99.90
44223;DHT22;29895;48.804;9.386;2023-04-24T06:29:39;11.10;99.90
44223;DHT22;29895;48.804;9.386;2023-04-24T06:32:05;11.30;99.90
44223;DHT22;29895;48.804;9.386;2023-04-24T06:34:30;11.80;99.90
44223;DHT22;29895;48.804;9.386;2023-04-24T06:36:57;12.20;99.90
44223;DHT22;29895;48.804;9.386;2023-04-24T06:39:23;12.70;99.90
44223;DHT22;29895;48.804;9.386;2023-04-24T06:41:49;13.10;99.90
44223;DHT22;29895;48.804;9.386;2023-04-24T06:44:14;13.60;99.90
44223;DHT22;29895;48.804;9.386;2023-04-24T06:46:40;14.10;99.90
44223;DHT22;29895;48.804;9.386;2023-04-24T06:49:06;14.50;99.90
44223;DHT22;29895;48.804;9.386;2023-04-24T06:51:31;14.80;99.90
44223;DHT22;29895;48.804;9.386;2023-04-24T06:53:58;15.10;99.90
44223;DHT22;29895;48.804;9.386;2023-04-24T06:56:23;15.40;99.90
44223;DHT22;29895;48.804;9.386;2023-04-24T06:58:50;15.60;99.90
44223;DHT22;29895;48.804;9.386;2023-04-24T07:01:16;15.90;99.90
44223;DHT22;29895;48.804;9.386;2023-04-24T07:03:42;16.10;99.90
44223;DHT22;29895;48.804;9.386;2023-04-24T07:06:07;16.20;99.90
44223;DHT22;29895;48.804;9.386;2023-04-24T07:08:33;16.20;99.90
44223;DHT22;29895;48.804;9.386;2023-04-24T07:10:58;16.50;99.90
44223;DHT22;29895;48.804;9.386;2023-04-24T07:13:24;16.60;99.90
44223;DHT22;29895;48.804;9.386;2023-04-24T07:15:50;16.30;99.90
44223;DHT22;29895;48.804;9.386;2023-04-24T07:18:17;16.00;99.90
44223;DHT22;29895;48.804;9.386;2023-04-24T07:20:43;16.00;99.90
44223;DHT22;29895;48.804;9.386;2023-04-24T07:23:09;16.60;99.90
44223;DHT22;29895;48.804;9.386;2023-04-24T07:25:34;16.60;99.90
44223;DHT22;29895;48.804;9.386;2023-04-24T07:28:00;16.80;99.90
44223;DHT22;29895;48.804;9.386;2023-04-24T07:30:26;16.80;99.90
44223;DHT22;29895;48.804;9.386;2023-04-24T07:32:54;16.60;99.90
44223;DHT22;29895;48.804;9.386;2023-04-24T07:35:19;16.00;99.90
44223;DHT22;29895;48.804;9.386;2023-04-24T07:37:45;15.50;99.90
44223;DHT22;29895;48.804;9.386;2023-04-24T07:40:14;14.90;99.90
44223;DHT22;29895;48.804;9.386;2023-04-24T07:42:40;14.30;99.90
44223;DHT22;29895;48.804;9.386;2023-04-24T07:45:05;14.00;99.90
44223;DHT22;29895;48.804;9.386;2023-04-24T07:47:31;13.70;99.90
44223;DHT22;29895;48.804;9.386;2023-04-24T07:49:57;13.70;99.90
44223;DHT22;29895;48.804;9.386;2023-04-24T07:52:24;13.80;99.90
44223;DHT22;29895;48.804;9.386;2023-04-24T07:54:49;14.10;99.90
44223;DHT22;29895;48.804;9.386;2023-04-24T07:57:15;14.30;99.90
44223;DHT22;29895;48.804;9.386;2023-04-24T07:59:41;14.30;99.90
44223;DHT22;29895;48.804;9.386;2023-04-24T08:02:06;14.50;99.90
44223;DHT22;29895;48.804;9.386;2023-04-24T08:04:32;14.90;99.90
44223;DHT22;29895;48.804;9.386;2023-04-24T08:06:58;15.20;99.90
44223;DHT22;29895;48.804;9.386;2023-04-24T08:09:23;15.10;99.90
44223;DHT22;29895;48.804;9.386;2023-04-24T08:11:49;14.80;99.90
44223;DHT22;29895;48.804;9.386;2023-04-24T08:14:15;14.50;99.90
44223;DHT22;29895;48.804;9.386;2023-04-24T08:16:40;14.30;99.90
44223;DHT22;29895;48.804;9.386;2023-04-24T08:19:06;14.30;99.90
44223;DHT22;29895;48.804;9.386;2023-04-24T08:21:31;14.10;99.90
44223;DHT22;29895;48.804;9.386;2023-04-24T08:23:57;14.10;99.90
44223;DHT22;29895;48.804;9.386;2023-04-24T08:26:23;14.00;99.90
44223;DHT22;29895;48.804;9.386;2023-04-24T08:28:48;13.90;99.90
44223;DHT22;29895;48.804;9.386;2023-04-24T08:31:14;13.80;99.90
44223;DHT22;29895;48.804;9.386;2023-04-24T08:33:39;13.90;99.90
44223;DHT22;29895;48.804;9.386;2023-04-24T08:36:06;13.70;99.90
44223;DHT22;29895;48.804;9.386;2023-04-24T08:38:32;13.70;99.90
44223;DHT22;29895;48.804;9.386;2023-04-24T08:40:58;13.80;99.90
44223;DHT22;29895;48.804;9.386;2023-04-24T08:43:24;14.00;99.90
44223;DHT22;29895;48.804;9.386;2023-04-24T08:45:51;14.10;99.90
44223;DHT22;29895;48.804;9.386;2023-04-24T08:48:17;14.40;99.90
44223;DHT22;29895;48.804;9.386;2023-04-24T08:50:43;14.50;99.90
44223;DHT22;29895;48.804;9.386;2023-04-24T08:53:10;14.40;99.90
44223;DHT22;29895;48.804;9.386;2023-04-24T08:55:35;14.30;99.90
44223;DHT22;29895;48.804;9.386;2023-04-24T08:58:01;14.40;99.90
44223;DHT22;29895;48.804;9.386;2023-04-24T09:00:27;14.20;99.90
44223;DHT22;29895;48.804;9.386;2023-04-24T09:02:53;14.40;99.90
44223;DHT22;29895;48.804;9.386;2023-04-24T09:05:20;14.30;99.90
44223;DHT22;29895;48.804;9.386;2023-04-24T09:07:55;14.10;99.90
44223;DHT22;29895;48.804;9.386;2023-04-24T09:10:24;13.90;99.90
44223;DHT22;29895;48.804;9.386;2023-04-24T09:12:50;13.60;99.90
44223;DHT22;29895;48.804;9.386;2023-04-24T09:15:16;13.50;99.90
44223;DHT22;29895;48.804;9.386;2023-04-24T09:17:42;13.30;99.90
44223;DHT22;29895;48.804;9.386;2023-04-24T09:20:08;13.40;99.90
44223;DHT22;29895;48.804;9.386;2023-04-24T09:22:34;13.60;99.90
44223;DHT22;29895;48.804;9.386;2023-04-24T09:25:01;13.80;99.90
44223;DHT22;29895;48.804;9.386;2023-04-24T09:27:28;13.80;99.90
44223;DHT22;29895;48.804;9.386;2023-04-24T09:29:56;13.70;99.90
44223;DHT22;29895;48.804;9.386;2023-04-24T09:32:23;13.60;99.90
44223;DHT22;29895;48.804;9.386;2023-04-24T09:35:04;13.50;99.90
44223;DHT22;29895;48.804;9.386;2023-04-24T09:37:34;13.30;99.90
44223;DHT22;29895;48.804;9.386;2023-04-24T09:40:18;13.10;99.90
44223;DHT22;29895;48.804;9.386;2023-04-24T09:42:45;12.80;99.90
44223;DHT22;29895;48.804;9.386;2023-04-24T09:45:11;12.40;99.90
44223;DHT22;29895;48.804;9.386;2023-04-24T09:47:37;12.20;99.90
44223;DHT22;29895;48.804;9.386;2023-04-24T09:50:09;12.10;99.90
44223;DHT22;29895;48.804;9.386;2023-04-24T09:52:35;12.00;99.90
44223;DHT22;29895;48.804;9.386;2023-04-24T09:55:00;12.00;99.90
44223;DHT22;29895;48.804;9.386;2023-04-24T09:57:26;12.00;99.90
44223;DHT22;29895;48.804;9.386;2023-04-24T09:59:53;12.10;99.90
44223;DHT22;29895;48.804;9.386;2023-04-24T10:02:19;12.40;99.90
44223;DHT22;29895;48.804;9.386;2023-04-24T10:04:54;12.80;99.90
44223;DHT22;29895;48.804;9.386;2023-04-24T10:07:21;13.20;99.90
44223;DHT22;29895;48.804;9.386;2023-04-24T10:09:46;13.60;99.90
44223;DHT22;29895;48.804;9.386;2023-04-24T10:12:12;14.00;99.90
44223;DHT22;29895;48.804;9.386;2023-04-24T10:14:38;14.10;99.90
44223;DHT22;29895;48.804;9.386;2023-04-24T10:17:03;14.10;99.90
44223;DHT22;29895;48.804;9.386;2023-04-24T10:19:30;13.80;99.90
44223;DHT22;29895;48.804;9.386;2023-04-24T10:21:55;13.70;99.90
44223;DHT22;29895;48.804;9.386;2023-04-24T10:24:21;13.70;99.90
44223;DHT22;29895;48.804;9.386;2023-04-24T10:26:47;14.10;99.90
44223;DHT22;29895;48.804;9.386;2023-04-24T10:29:17;14.20;99.90
44223;DHT22;29895;48.804;9.386;2023-04-24T10:31:43;14.50;99.90
44223;DHT22;29895;48.804;9.386;2023-04-24T10:34:10;14.60;99.90
44223;DHT22;29895;48.804;9.386;2023-04-24T10:36:37;14.80;99.90
44223;DHT22;29895;48.804;9.386;2023-04-24T10:39:05;15.10;99.90
44223;DHT22;29895;48.804;9.386;2023-04-24T10:41:33;15.30;99.90
44223;DHT22;29895;48.804;9.386;2023-04-24T10:44:08;15.80;99.70
44223;DHT22;29895;48.804;9.386;2023-04-24T10:46:35;15.80;98.50
44223;DHT22;29895;48.804;9.386;2023-04-24T10:49:03;15.50;98.20
44223;DHT22;29895;48.804;9.386;2023-04-24T10:56:51;14.70;98.30
44223;DHT22;29895;48.804;9.386;2023-04-24T10:59:34;14.40;99.00
44223;DHT22;29895;48.804;9.386;2023-04-24T11:02:00;14.10;98.90
44223;DHT22;29895;48.804;9.386;2023-04-24T11:04:29;13.70;99.00
44223;DHT22;29895;48.804;9.386;2023-04-24T11:06:55;13.70;99.90
44223;DHT22;29895;48.804;9.386;2023-04-24T11:09:20;13.70;99.90
44223;DHT22;29895;48.804;9.386;2023-04-24T11:11:46;13.70;99.90
44223;DHT22;29895;48.804;9.386;2023-04-24T11:14:15;13.60;99.90
44223;DHT22;29895;48.804;9.386;2023-04-24T11:21:36;13.90;99.80
44223;DHT22;29895;48.804;9.386;2023-04-24T11:26:48;14.00;99.80
44223;DHT22;29895;48.804;9.386;2023-04-24T11:29:13;14.10;99.90
44223;DHT22;29895;48.804;9.386;2023-04-24T11:31:40;14.10;99.90
44223;DHT22;29895;48.804;9.386;2023-04-24T11:34:11;14.00;99.90
44223;DHT22;29895;48.804;9.386;2023-04-24T11:36:37;13.90;99.90
44223;DHT22;29895;48.804;9.386;2023-04-24T11:39:03;13.80;99.90
44223;DHT22;29895;48.804;9.386;2023-04-24T11:41:28;13.80;99.90
44223;DHT22;29895;48.804;9.386;2023-04-24T11:43:54;13.90;99.90
44223;DHT22;29895;48.804;9.386;2023-04-24T11:46:20;14.10;99.90
44223;DHT22;29895;48.804;9.386;2023-04-24T11:48:46;14.40;99.90
44223;DHT22;29895;48.804;9.386;2023-04-24T11:51:12;14.50;99.70
44223;DHT22;29895;48.804;9.386;2023-04-24T11:53:38;14.60;99.00
44223;DHT22;29895;48.804;9.386;2023-04-24T11:56:03;14.70;99.10
44223;DHT22;29895;48.804;9.386;2023-04-24T11:58:34;14.80;98.90
44223;DHT22;29895;48.804;9.386;2023-04-24T12:01:00;14.80;98.30
44223;DHT22;29895;48.804;9.386;2023-04-24T12:03:26;14.80;98.40
44223;DHT22;29895;48.804;9.386;2023-04-24T12:05:52;14.80;98.50
44223;DHT22;29895;48.804;9.386;2023-04-24T12:08:27;14.70;98.60
44223;DHT22;29895;48.804;9.386;2023-04-24T12:10:52;14.40;99.80
44223;DHT22;29895;48.804;9.386;2023-04-24T12:13:18;14.10;99.90
44223;DHT22;29895;48.804;9.386;2023-04-24T12:15:43;13.80;99.90
44223;DHT22;29895;48.804;9.386;2023-04-24T12:18:11;13.50;99.90
44223;DHT22;29895;48.804;9.386;2023-04-24T12:20:36;13.30;99.90
44223;DHT22;29895;48.804;9.386;2023-04-24T12:23:02;13.50;99.90
44223;DHT22;29895;48.804;9.386;2023-04-24T12:25:28;13.90;99.90
44223;DHT22;29895;48.804;9.386;2023-04-24T12:27:55;14.30;99.90
44223;DHT22;29895;48.804;9.386;2023-04-24T12:33:09;14.60;99.90
44223;DHT22;29895;48.804;9.386;2023-04-24T12:35:35;14.70;99.90
44223;DHT22;29895;48.804;9.386;2023-04-24T12:38:11;14.80;99.70
44223;DHT22;29895;48.804;9.386;2023-04-24T12:40:38;14.60;99.80
44223;DHT22;29895;48.804;9.386;2023-04-24T12:43:13;14.50;99.50
44223;DHT22;29895;48.804;9.386;2023-04-24T12:45:38;14.30;99.90
44223;DHT22;29895;48.804;9.386;2023-04-24T12:48:04;14.20;99.90
44223;DHT22;29895;48.804;9.386;2023-04-24T12:50:29;14.20;99.90
44223;DHT22;29895;48.804;9.386;2023-04-24T12:52:55;14.40;99.90
44223;DHT22;29895;48.804;9.386;2023-04-24T12:55:20;14.30;99.90
44223;DHT22;29895;48.804;9.386;2023-04-24T12:57:46;14.10;99.50
44223;DHT22;29895;48.804;9.386;2023-04-24T13:00:11;14.00;99.30
44223;DHT22;29895;48.804;9.386;2023-04-24T13:02:37;13.80;99.80
44223;DHT22;29895;48.804;9.386;2023-04-24T13:05:03;13.90;99.90
44223;DHT22;29895;48.804;9.386;2023-04-24T13:07:29;13.80;99.90
44223;DHT22;29895;48.804;9.386;2023-04-24T13:09:55;13.80;99.90
44223;DHT22;29895;48.804;9.386;2023-04-24T13:12:21;14.00;99.90
44223;DHT22;29895;48.804;9.386;2023-04-24T13:14:49;14.00;99.90
44223;DHT22;29895;48.804;9.386;2023-04-24T13:17:14;13.90;99.90
44223;DHT22;29895;48.804;9.386;2023-04-24T13:19:41;13.90;99.90
44223;DHT22;29895;48.804;9.386;2023-04-24T13:22:08;13.70;99.90
44223;DHT22;29895;48.804;9.386;2023-04-24T13:24:33;13.40;99.90
44223;DHT22;29895;48.804;9.386;2023-04-24T13:26:59;12.90;99.90
44223;DHT22;29895;48.804;9.386;2023-04-24T13:29:25;12.10;99.90
44223;DHT22;29895;48.804;9.386;2023-04-24T13:31:51;11.70;99.90
44223;DHT22;29895;48.804;9.386;2023-04-24T13:34:17;11.40;99.90
44223;DHT22;29895;48.804;9.386;2023-04-24T13:36:43;11.40;99.90
44223;DHT22;29895;48.804;9.386;2023-04-24T13:39:08;11.80;99.90
44223;DHT22;29895;48.804;9.386;2023-04-24T13:41:34;12.50;99.90
44223;DHT22;29895;48.804;9.386;2023-04-24T13:44:00;13.10;99.90
44223;DHT22;29895;48.804;9.386;2023-04-24T13:46:26;13.40;99.90
44223;DHT22;29895;48.804;9.386;2023-04-24T13:48:51;13.50;99.90
44223;DHT22;29895;48.804;9.386;2023-04-24T13:51:17;13.50;99.90
44223;DHT22;29895;48.804;9.386;2023-04-24T13:53:43;13.60;99.90
44223;DHT22;29895;48.804;9.386;2023-04-24T13:56:08;13.70;99.90
44223;DHT22;29895;48.804;9.386;2023-04-24T13:58:34;13.70;99.90
44223;DHT22;29895;48.804;9.386;2023-04-24T14:01:01;13.80;99.90
44223;DHT22;29895;48.804;9.386;2023-04-24T14:03:27;13.70;99.90
44223;DHT22;29895;48.804;9.386;2023-04-24T14:05:52;13.60;99.90
44223;DHT22;29895;48.804;9.386;2023-04-24T14:08:17;13.40;99.90
44223;DHT22;29895;48.804;9.386;2023-04-24T14:10:43;13.30;99.90
44223;DHT22;29895;48.804;9.386;2023-04-24T14:13:08;13.20;99.90
44223;DHT22;29895;48.804;9.386;2023-04-24T14:15:37;13.00;99.90
44223;DHT22;29895;48.804;9.386;2023-04-24T14:18:03;12.00;99.90
44223;DHT22;29895;48.804;9.386;2023-04-24T14:20:29;11.40;99.90
44223;DHT22;29895;48.804;9.386;2023-04-24T14:22:54;11.20;99.90
44223;DHT22;29895;48.804;9.386;2023-04-24T14:25:20;11.40;99.90
44223;DHT22;29895;48.804;9.386;2023-04-24T14:27:45;11.80;99.90
44223;DHT22;29895;48.804;9.386;2023-04-24T14:30:12;12.30;99.90
44223;DHT22;29895;48.804;9.386;2023-04-24T14:32:38;12.60;99.90
44223;DHT22;29895;48.804;9.386;2023-04-24T14:35:04;12.80;99.90
44223;DHT22;29895;48.804;9.386;2023-04-24T14:37:30;13.00;99.90
44223;DHT22;29895;48.804;9.386;2023-04-24T14:39:56;13.30;99.90
44223;DHT22;29895;48.804;9.386;2023-04-24T14:42:21;13.40;99.90
44223;DHT22;29895;48.804;9.386;2023-04-24T14:44:47;13.50;99.90
44223;DHT22;29895;48.804;9.386;2023-04-24T14:47:12;13.60;99.90
44223;DHT22;29895;48.804;9.386;2023-04-24T14:49:38;13.70;99.90
44223;DHT22;29895;48.804;9.386;2023-04-24T14:52:03;13.60;99.90
44223;DHT22;29895;48.804;9.386;2023-04-24T14:54:29;13.40;99.90
44223;DHT22;29895;48.804;9.386;2023-04-24T14:56:55;13.30;99.90
44223;DHT22;29895;48.804;9.386;2023-04-24T14:59:22;13.20;99.90
44223;DHT22;29895;48.804;9.386;2023-04-24T15:01:48;13.20;99.90
44223;DHT22;29895;48.804;9.386;2023-04-24T15:04:13;13.20;99.90
44223;DHT22;29895;48.804;9.386;2023-04-24T15:06:39;13.20;99.90
44223;DHT22;29895;48.804;9.386;2023-04-24T15:09:04;13.00;99.90
44223;DHT22;29895;48.804;9.386;2023-04-24T15:11:30;12.80;99.90
44223;DHT22;29895;48.804;9.386;2023-04-24T15:13:56;12.80;99.90
44223;DHT22;29895;48.804;9.386;2023-04-24T15:16:21;12.90;99.90
44223;DHT22;29895;48.804;9.386;2023-04-24T15:18:47;13.10;99.90
44223;DHT22;29895;48.804;9.386;2023-04-24T15:21:12;13.40;99.90
44223;DHT22;29895;48.804;9.386;2023-04-24T15:23:38;13.60;99.90
44223;DHT22;29895;48.804;9.386;2023-04-24T15:26:03;13.70;99.90
44223;DHT22;29895;48.804;9.386;2023-04-24T15:28:29;13.30;99.90
44223;DHT22;29895;48.804;9.386;2023-04-24T15:30:55;13.10;99.90
44223;DHT22;29895;48.804;9.386;2023-04-24T15:33:20;13.00;99.90
44223;DHT22;29895;48.804;9.386;2023-04-24T15:35:46;13.00;99.90
44223;DHT22;29895;48.804;9.386;2023-04-24T15:38:13;13.00;99.90